sensor_id;sensor_type;location;lat;lon;timestamp;pressure;altitude;pressure_sealevel;temperature;humidity
11525;BME280;5819;49.648;8.330;2023-01-27T00:01:03;100869.00;;;-0.30;100.00
11525;BME280;5819;49.648;8.330;2023-01-27T00:03:30;100870.75;;;-0.26;100.00
11525;BME280;5819;49.648;8.330;2023-01-27T00:05:59;100879.25;;;-0.29;100.00
11525;BME280;5819;49.648;8.330;2023-01-27T00:08:30;100869.06;;;-0.23;100.00
11525;BME280;5819;49.648;8.330;2023-01-27T00:10:59;100872.53;;;-0.18;100.00
11525;BME280;5819;49.648;8.330;2023-01-27T00:13:48;100868.28;;;-0.17;100.00
11525;BME280;5819;49.648;8.330;2023-01-27T00:16:24;100865.78;;;-0.13;100.00
11525;BME280;5819;49.648;8.330;2023-01-27T00:18:52;100855.59;;;-0.08;100.00
11525;BME280;5819;49.648;8.330;2023-01-27T00:21:20;100859.81;;;-0.10;100.00
11525;BME280;5819;49.648;8.330;2023-01-27T00:24:09;100860.66;;;-0.10;100.00
11525;BME280;5819;49.648;8.330;2023-01-27T00:27:00;100855.56;;;-0.10;100.00
11525;BME280;5819;49.648;8.330;2023-01-27T00:29:32;100855.59;;;-0.08;100.00
11525;BME280;5819;49.648;8.330;2023-01-27T00:32:06;100850.47;;;-0.04;100.00
11525;BME280;5819;49.648;8.330;2023-01-27T00:34:53;100857.31;;;-0.06;100.00
11525;BME280;5819;49.648;8.330;2023-01-27T00:37:24;100853.06;;;-0.05;100.00
11525;BME280;5819;49.648;8.330;2023-01-27T00:39:56;100852.19;;;-0.06;100.00
11525;BME280;5819;49.648;8.330;2023-01-27T00:42:28;100855.66;;;0.03;100.00
11525;BME280;5819;49.648;8.330;2023-01-27T00:44:59;100851.41;;;0.05;100.00
11525;BME280;5819;49.648;8.330;2023-01-27T00:47:49;100847.16;;;0.04;100.00
11525;BME280;5819;49.648;8.330;2023-01-27T00:50:18;100844.63;;;0.07;100.00
11525;BME280;5819;49.648;8.330;2023-01-27T00:52:46;100839.53;;;0.10;100.00
11525;BME280;5819;49.648;8.330;2023-01-27T00:55:17;100842.06;;;0.07;100.00
11525;BME280;5819;49.648;8.330;2023-01-27T00:57:46;100843.78;;;0.08;100.00
11525;BME280;5819;49.648;8.330;2023-01-27T01:00:15;100840.38;;;0.07;100.00
11525;BME280;5819;49.648;8.330;2023-01-27T01:02:44;100842.06;;;0.10;100.00
11525;BME280;5819;49.648;8.330;2023-01-27T01:05:13;100839.53;;;0.10;100.00
11525;BME280;5819;49.648;8.330;2023-01-27T01:07:41;100841.22;;;0.12;100.00
11525;BME280;5819;49.648;8.330;2023-01-27T01:10:09;100846.34;;;0.12;100.00
11525;BME280;5819;49.648;8.330;2023-01-27T01:12:38;100845.50;;;0.13;100.00
11525;BME280;5819;49.648;8.330;2023-01-27T01:15:07;100849.81;;;0.17;100.00
11525;BME280;5819;49.648;8.330;2023-01-27T01:17:34;100849.75;;;0.13;100.00
11525;BME280;5819;49.648;8.330;2023-01-27T01:20:03;100860.00;;;0.11;100.00
11525;BME280;5819;49.648;8.330;2023-01-27T01:22:32;100861.75;;;0.15;100.00
11525;BME280;5819;49.648;8.330;2023-01-27T01:25:01;100854.88;;;0.13;100.00
11525;BME280;5819;49.648;8.330;2023-01-27T01:27:30;100863.44;;;0.15;100.00
11525;BME280;5819;49.648;8.330;2023-01-27T01:29:58;100860.00;;;0.13;100.00
11525;BME280;5819;49.648;8.330;2023-01-27T01:32:26;100857.41;;;0.10;100.00
11525;BME280;5819;49.648;8.330;2023-01-27T01:34:54;100865.13;;;0.11;100.00
11525;BME280;5819;49.648;8.330;2023-01-27T01:37:22;100855.72;;;0.10;100.00
11525;BME280;5819;49.648;8.330;2023-01-27T01:39:51;100859.94;;;0.08;100.00
11525;BME280;5819;49.648;8.330;2023-01-27T01:42:19;100860.88;;;0.12;100.00
11525;BME280;5819;49.648;8.330;2023-01-27T01:44:49;100864.25;;;0.12;100.00
11525;BME280;5819;49.648;8.330;2023-01-27T01:47:21;100856.59;;;0.14;100.00
11525;BME280;5819;49.648;8.330;2023-01-27T01:49:50;100860.84;;;0.13;100.00
11525;BME280;5819;49.648;8.330;2023-01-27T01:52:19;100859.16;;;0.14;100.00
11525;BME280;5819;49.648;8.330;2023-01-27T01:54:52;100855.75;;;0.13;100.00
11525;BME280;5819;49.648;8.330;2023-01-27T01:57:26;100859.13;;;0.12;100.00
11525;BME280;5819;49.648;8.330;2023-01-27T01:59:57;100856.56;;;0.12;100.00
11525;BME280;5819;49.648;8.330;2023-01-27T02:02:27;100852.38;;;0.17;100.00
11525;BME280;5819;49.648;8.330;2023-01-27T02:04:57;100851.53;;;0.21;100.00
11525;BME280;5819;49.648;8.330;2023-01-27T02:07:32;100845.59;;;0.22;100.00
11525;BME280;5819;49.648;8.330;2023-01-27T02:10:02;100844.72;;;0.22;100.00
11525;BME280;5819;49.648;8.330;2023-01-27T02:12:34;100851.50;;;0.17;100.00
11525;BME280;5819;49.648;8.330;2023-01-27T02:15:02;100844.72;;;0.19;100.00
11525;BME280;5819;49.648;8.330;2023-01-27T02:17:30;100852.38;;;0.19;100.00
11525;BME280;5819;49.648;8.330;2023-01-27T02:20:05;100846.44;;;0.20;100.00
11525;BME280;5819;49.648;8.330;2023-01-27T02:22:48;100843.00;;;0.19;100.00
11525;BME280;5819;49.648;8.330;2023-01-27T02:25:26;100837.03;;;0.19;100.00
11525;BME280;5819;49.648;8.330;2023-01-27T02:27:57;100845.56;;;0.21;100.00
11525;BME280;5819;49.648;8.330;2023-01-27T02:30:26;100840.44;;;0.21;100.00
11525;BME280;5819;49.648;8.330;2023-01-27T02:32:54;100828.53;;;0.20;100.00
11525;BME280;5819;49.648;8.330;2023-01-27T02:35:26;100830.22;;;0.21;100.00
11525;BME280;5819;49.648;8.330;2023-01-27T02:37:58;100833.66;;;0.23;100.00
11525;BME280;5819;49.648;8.330;2023-01-27T02:40:29;100837.09;;;0.26;100.00
11525;BME280;5819;49.648;8.330;2023-01-27T02:42:59;100831.13;;;0.26;100.00
11525;BME280;5819;49.648;8.330;2023-01-27T02:45:27;100835.38;;;0.25;100.00
11525;BME280;5819;49.648;8.330;2023-01-27T02:47:56;100833.66;;;0.24;100.00
11525;BME280;5819;49.648;8.330;2023-01-27T02:50:24;100843.06;;;0.24;100.00
11525;BME280;5819;49.648;8.330;2023-01-27T02:52:52;100839.59;;;0.20;100.00
11525;BME280;5819;49.648;8.330;2023-01-27T02:55:20;100841.28;;;0.18;100.00
11525;BME280;5819;49.648;8.330;2023-01-27T02:57:50;100846.44;;;0.20;100.00
11525;BME280;5819;49.648;8.330;2023-01-27T03:00:41;100851.50;;;0.17;100.00
11525;BME280;5819;49.648;8.330;2023-01-27T03:03:11;100851.53;;;0.18;100.00
11525;BME280;5819;49.648;8.330;2023-01-27T03:05:39;100850.69;;;0.21;100.00
11525;BME280;5819;49.648;8.330;2023-01-27T03:08:07;100849.03;;;0.27;100.00
11525;BME280;5819;49.648;8.330;2023-01-27T03:10:35;100854.09;;;0.21;100.00
11525;BME280;5819;49.648;8.330;2023-01-27T03:13:03;100855.84;;;0.25;100.00
11525;BME280;5819;49.648;8.330;2023-01-27T03:15:31;100851.56;;;0.24;100.00
11525;BME280;5819;49.648;8.330;2023-01-27T03:18:18;100853.31;;;0.27;100.00
11525;BME280;5819;49.648;8.330;2023-01-27T03:20:48;100857.59;;;0.32;100.00
11525;BME280;5819;49.648;8.330;2023-01-27T03:23:18;100865.19;;;0.25;100.00
11525;BME280;5819;49.648;8.330;2023-01-27T03:25:49;100853.25;;;0.21;100.00
11525;BME280;5819;49.648;8.330;2023-01-27T03:28:17;100854.13;;;0.23;100.00
11525;BME280;5819;49.648;8.330;2023-01-27T03:30:59;100854.91;;;0.17;100.00
11525;BME280;5819;49.648;8.330;2023-01-27T03:33:39;100854.94;;;0.20;100.00
11525;BME280;5819;49.648;8.330;2023-01-27T03:36:37;100855.81;;;0.22;100.00
11525;BME280;5819;49.648;8.330;2023-01-27T03:39:23;100860.06;;;0.20;100.00
11525;BME280;5819;49.648;8.330;2023-01-27T03:42:09;100850.72;;;0.24;100.00
11525;BME280;5819;49.648;8.330;2023-01-27T03:44:55;100857.56;;;0.26;100.00
11525;BME280;5819;49.648;8.330;2023-01-27T03:47:40;100855.84;;;0.27;100.00
11525;BME280;5819;49.648;8.330;2023-01-27T03:50:10;100849.84;;;0.25;100.00
11525;BME280;5819;49.648;8.330;2023-01-27T03:52:44;100854.13;;;0.23;100.00
11525;BME280;5819;49.648;8.330;2023-01-27T03:55:29;100858.41;;;0.28;100.00
11525;BME280;5819;49.648;8.330;2023-01-27T03:57:57;100857.56;;;0.26;100.00
11525;BME280;5819;49.648;8.330;2023-01-27T04:00:39;100851.63;;;0.32;100.00
11525;BME280;5819;49.648;8.330;2023-01-27T04:03:07;100865.19;;;0.25;100.00
11525;BME280;5819;49.648;8.330;2023-01-27T04:05:54;100861.00;;;0.30;100.00
11525;BME280;5819;49.648;8.330;2023-01-27T04:08:41;100863.56;;;0.33;100.00
11525;BME280;5819;49.648;8.330;2023-01-27T04:11:09;100867.00;;;0.35;100.00
11525;BME280;5819;49.648;8.330;2023-01-27T04:13:59;100867.84;;;0.34;100.00
11525;BME280;5819;49.648;8.330;2023-01-27T04:16:28;100873.84;;;0.37;100.00
11525;BME280;5819;49.648;8.330;2023-01-27T04:18:57;100872.09;;;0.33;100.00
11525;BME280;5819;49.648;8.330;2023-01-27T04:21:27;100868.72;;;0.36;100.00
11525;BME280;5819;49.648;8.330;2023-01-27T04:23:55;100872.13;;;0.35;100.00
11525;BME280;5819;49.648;8.330;2023-01-27T04:26:24;100866.16;;;0.36;100.00
11525;BME280;5819;49.648;8.330;2023-01-27T04:28:52;100867.00;;;0.35;100.00
11525;BME280;5819;49.648;8.330;2023-01-27T04:31:19;100871.28;;;0.36;100.00
11525;BME280;5819;49.648;8.330;2023-01-27T04:33:47;100866.97;;;0.33;100.00
11525;BME280;5819;49.648;8.330;2023-01-27T04:36:15;100865.28;;;0.34;100.00
11525;BME280;5819;49.648;8.330;2023-01-27T04:38:44;100872.97;;;0.34;100.00
11525;BME280;5819;49.648;8.330;2023-01-27T04:41:13;100873.88;;;0.42;100.00
11525;BME280;5819;49.648;8.330;2023-01-27T04:43:40;100880.66;;;0.35;100.00
11525;BME280;5819;49.648;8.330;2023-01-27T04:46:09;100876.41;;;0.40;100.00
11525;BME280;5819;49.648;8.330;2023-01-27T04:48:36;100869.63;;;0.48;100.00
11525;BME280;5819;49.648;8.330;2023-01-27T04:51:04;100867.03;;;0.41;100.00
11525;BME280;5819;49.648;8.330;2023-01-27T04:53:34;100868.81;;;0.51;100.00
11525;BME280;5819;49.648;8.330;2023-01-27T04:56:05;100874.00;;;0.63;100.00
11525;BME280;5819;49.648;8.330;2023-01-27T04:58:34;100872.25;;;0.52;100.00
11525;BME280;5819;49.648;8.330;2023-01-27T05:01:02;100877.34;;;0.53;100.00
11525;BME280;5819;49.648;8.330;2023-01-27T05:03:30;100875.63;;;0.49;100.00
11525;BME280;5819;49.648;8.330;2023-01-27T05:05:58;100884.19;;;0.51;100.00
11525;BME280;5819;49.648;8.330;2023-01-27T05:08:26;100885.00;;;0.44;100.00
11525;BME280;5819;49.648;8.330;2023-01-27T05:10:54;100885.88;;;0.47;100.00
11525;BME280;5819;49.648;8.330;2023-01-27T05:13:23;100889.22;;;0.42;100.00
11525;BME280;5819;49.648;8.330;2023-01-27T05:15:50;100886.69;;;0.45;100.00
11525;BME280;5819;49.648;8.330;2023-01-27T05:18:18;100894.38;;;0.46;100.00
11525;BME280;5819;49.648;8.330;2023-01-27T05:20:46;100887.53;;;0.42;100.00
11525;BME280;5819;49.648;8.330;2023-01-27T05:23:16;100885.88;;;0.47;100.00
11525;BME280;5819;49.648;8.330;2023-01-27T05:26:06;100883.25;;;0.43;100.00
11525;BME280;5819;49.648;8.330;2023-01-27T05:28:38;100892.63;;;0.42;100.00
11525;BME280;5819;49.648;8.330;2023-01-27T05:31:08;100892.63;;;0.39;100.00
11525;BME280;5819;49.648;8.330;2023-01-27T05:33:38;100894.41;;;0.51;100.00
11525;BME280;5819;49.648;8.330;2023-01-27T05:36:07;100894.38;;;0.46;100.00
11525;BME280;5819;49.648;8.330;2023-01-27T05:38:36;100895.28;;;0.52;100.00
11525;BME280;5819;49.648;8.330;2023-01-27T05:41:06;100904.59;;;0.43;100.00
11525;BME280;5819;49.648;8.330;2023-01-27T05:43:38;100896.97;;;0.48;100.00
11525;BME280;5819;49.648;8.330;2023-01-27T05:46:08;100896.06;;;0.46;100.00
11525;BME280;5819;49.648;8.330;2023-01-27T05:48:39;100896.09;;;0.47;100.00
11525;BME280;5819;49.648;8.330;2023-01-27T05:51:08;100898.69;;;0.52;100.00
11525;BME280;5819;49.648;8.330;2023-01-27T05:53:40;100906.28;;;0.44;100.00
11525;BME280;5819;49.648;8.330;2023-01-27T05:56:10;100902.88;;;0.45;100.00
11525;BME280;5819;49.648;8.330;2023-01-27T05:58:40;100912.31;;;0.48;100.00
11525;BME280;5819;49.648;8.330;2023-01-27T06:01:10;100908.84;;;0.43;100.00
11525;BME280;5819;49.648;8.330;2023-01-27T06:03:39;100917.38;;;0.43;100.00
11525;BME280;5819;49.648;8.330;2023-01-27T06:06:08;100914.00;;;0.47;100.00
11525;BME280;5819;49.648;8.330;2023-01-27T06:08:37;100915.72;;;0.47;100.00
11525;BME280;5819;49.648;8.330;2023-01-27T06:11:06;100915.78;;;0.56;100.00
11525;BME280;5819;49.648;8.330;2023-01-27T06:13:34;100917.41;;;0.50;100.00
11525;BME280;5819;49.648;8.330;2023-01-27T06:16:08;100916.59;;;0.51;100.00
11525;BME280;5819;49.648;8.330;2023-01-27T06:18:37;100923.34;;;0.45;100.00
11525;BME280;5819;49.648;8.330;2023-01-27T06:21:06;100919.13;;;0.47;100.00
11525;BME280;5819;49.648;8.330;2023-01-27T06:23:35;100916.59;;;0.51;100.00
11525;BME280;5819;49.648;8.330;2023-01-27T06:26:05;100923.38;;;0.47;100.00
11525;BME280;5819;49.648;8.330;2023-01-27T06:28:34;100929.38;;;0.54;100.00
11525;BME280;5819;49.648;8.330;2023-01-27T06:31:08;100918.31;;;0.55;100.00
11525;BME280;5819;49.648;8.330;2023-01-27T06:33:37;100914.06;;;0.57;100.00
11525;BME280;5819;49.648;8.330;2023-01-27T06:36:09;100914.03;;;0.54;100.00
11525;BME280;5819;49.648;8.330;2023-01-27T06:38:39;100906.50;;;0.72;100.00
11525;BME280;5819;49.648;8.330;2023-01-27T06:41:07;100920.97;;;0.67;100.00
11525;BME280;5819;49.648;8.330;2023-01-27T06:43:35;100926.00;;;0.55;100.00
11525;BME280;5819;49.648;8.330;2023-01-27T06:46:03;100917.44;;;0.53;100.00
11525;BME280;5819;49.648;8.330;2023-01-27T06:48:33;100929.41;;;0.52;100.00
11525;BME280;5819;49.648;8.330;2023-01-27T06:51:03;100944.75;;;0.54;100.00
11525;BME280;5819;49.648;8.330;2023-01-27T06:53:32;100932.00;;;0.61;100.00
11525;BME280;5819;49.648;8.330;2023-01-27T06:56:03;100932.81;;;0.57;100.00
11525;BME280;5819;49.648;8.330;2023-01-27T06:58:33;100937.09;;;0.58;100.00
11525;BME280;5819;49.648;8.330;2023-01-27T07:01:03;100933.69;;;0.61;100.00
11525;BME280;5819;49.648;8.330;2023-01-27T07:03:33;100942.22;;;0.55;100.00
11525;BME280;5819;49.648;8.330;2023-01-27T07:06:02;100946.50;;;0.61;100.00
11525;BME280;5819;49.648;8.330;2023-01-27T07:08:29;100945.72;;;0.68;100.00
11525;BME280;5819;49.648;8.330;2023-01-27T07:11:01;100955.91;;;0.62;100.00
11525;BME280;5819;49.648;8.330;2023-01-27T07:13:30;100962.75;;;0.64;100.00
11525;BME280;5819;49.648;8.330;2023-01-27T07:15:58;100957.66;;;0.64;100.00
11525;BME280;5819;49.648;8.330;2023-01-27T07:18:27;100955.06;;;0.66;100.00
11525;BME280;5819;49.648;8.330;2023-01-27T07:20:56;100961.06;;;0.66;100.00
11525;BME280;5819;49.648;8.330;2023-01-27T07:23:24;100958.59;;;0.78;100.00
11525;BME280;5819;49.648;8.330;2023-01-27T07:25:52;100959.44;;;0.80;100.00
11525;BME280;5819;49.648;8.330;2023-01-27T07:28:20;100962.00;;;0.80;100.00
11525;BME280;5819;49.648;8.330;2023-01-27T07:30:47;100967.06;;;0.70;100.00
11525;BME280;5819;49.648;8.330;2023-01-27T07:33:16;100978.19;;;0.72;100.00
11525;BME280;5819;49.648;8.330;2023-01-27T07:35:47;100984.09;;;0.66;100.00
11525;BME280;5819;49.648;8.330;2023-01-27T07:38:17;100983.25;;;0.64;100.00
11525;BME280;5819;49.648;8.330;2023-01-27T07:40:45;100987.50;;;0.65;100.00
11525;BME280;5819;49.648;8.330;2023-01-27T07:43:14;100989.34;;;0.80;100.00
11525;BME280;5819;49.648;8.330;2023-01-27T07:45:42;100991.81;;;0.71;100.00
11525;BME280;5819;49.648;8.330;2023-01-27T07:48:09;100997.00;;;0.81;100.00
11525;BME280;5819;49.648;8.330;2023-01-27T07:50:38;100999.56;;;0.80;100.00
11525;BME280;5819;49.648;8.330;2023-01-27T07:53:08;100999.56;;;0.84;100.00
11525;BME280;5819;49.648;8.330;2023-01-27T07:55:38;101008.94;;;0.81;100.00
11525;BME280;5819;49.648;8.330;2023-01-27T07:58:07;101001.38;;;0.98;100.00
11525;BME280;5819;49.648;8.330;2023-01-27T08:00:35;101000.63;;;1.11;100.00
11525;BME280;5819;49.648;8.330;2023-01-27T08:03:03;101003.16;;;1.03;100.00
11525;BME280;5819;49.648;8.330;2023-01-27T08:05:34;101007.41;;;1.00;100.00
11525;BME280;5819;49.648;8.330;2023-01-27T08:08:04;101010.06;;;1.15;100.00
11525;BME280;5819;49.648;8.330;2023-01-27T08:10:32;101014.38;;;1.23;100.00
11525;BME280;5819;49.648;8.330;2023-01-27T08:13:02;101018.59;;;1.15;100.00
11525;BME280;5819;49.648;8.330;2023-01-27T08:15:30;101008.38;;;1.18;100.00
11525;BME280;5819;49.648;8.330;2023-01-27T08:17:58;101017.75;;;1.18;100.00
11525;BME280;5819;49.648;8.330;2023-01-27T08:20:27;101012.69;;;1.27;100.00
11525;BME280;5819;49.648;8.330;2023-01-27T08:22:55;101009.34;;;1.38;100.00
11525;BME280;5819;49.648;8.330;2023-01-27T08:25:23;101015.31;;;1.36;100.00
11525;BME280;5819;49.648;8.330;2023-01-27T08:27:52;101014.44;;;1.35;100.00
11525;BME280;5819;49.648;8.330;2023-01-27T08:30:23;101005.94;;;1.39;100.00
11525;BME280;5819;49.648;8.330;2023-01-27T08:32:52;101013.56;;;1.33;100.00
11525;BME280;5819;49.648;8.330;2023-01-27T08:35:20;101012.78;;;1.44;100.00
11525;BME280;5819;49.648;8.330;2023-01-27T08:37:48;101012.00;;;1.55;100.00
11525;BME280;5819;49.648;8.330;2023-01-27T08:40:17;101011.97;;;1.54;100.00
11525;BME280;5819;49.648;8.330;2023-01-27T08:42:45;101019.63;;;1.46;100.00
11525;BME280;5819;49.648;8.330;2023-01-27T08:45:16;101020.44;;;1.37;100.00
11525;BME280;5819;49.648;8.330;2023-01-27T08:47:45;101029.00;;;1.42;100.00
11525;BME280;5819;49.648;8.330;2023-01-27T08:50:13;101028.19;;;1.48;100.00
11525;BME280;5819;49.648;8.330;2023-01-27T08:52:42;101029.09;;;1.59;100.00
11525;BME280;5819;49.648;8.330;2023-01-27T08:55:10;101035.03;;;1.48;100.00
11525;BME280;5819;49.648;8.330;2023-01-27T08:57:38;101040.13;;;1.46;100.00
11525;BME280;5819;49.648;8.330;2023-01-27T09:00:08;101039.28;;;1.44;100.00
11525;BME280;5819;49.648;8.330;2023-01-27T09:02:36;101041.84;;;1.44;100.00
11525;BME280;5819;49.648;8.330;2023-01-27T09:05:06;101052.97;;;1.48;100.00
11525;BME280;5819;49.648;8.330;2023-01-27T09:07:35;101050.38;;;1.46;100.00
11525;BME280;5819;49.648;8.330;2023-01-27T09:10:03;101050.38;;;1.49;100.00
11525;BME280;5819;49.648;8.330;2023-01-27T09:12:42;101056.31;;;1.40;100.00
11525;BME280;5819;49.648;8.330;2023-01-27T09:15:10;101054.63;;;1.42;100.00
11525;BME280;5819;49.648;8.330;2023-01-27T09:17:39;101061.41;;;1.31;100.00
11525;BME280;5819;49.648;8.330;2023-01-27T09:20:10;101063.94;;;1.30;100.00
11525;BME280;5819;49.648;8.330;2023-01-27T09:22:39;101061.41;;;1.28;100.00
11525;BME280;5819;49.648;8.330;2023-01-27T09:25:11;101067.34;;;1.27;100.00
11525;BME280;5819;49.648;8.330;2023-01-27T09:27:40;101068.22;;;1.28;100.00
11525;BME280;5819;49.648;8.330;2023-01-27T09:30:09;101064.78;;;1.29;100.00
11525;BME280;5819;49.648;8.330;2023-01-27T09:32:39;101069.09;;;1.28;100.00
11525;BME280;5819;49.648;8.330;2023-01-27T09:35:09;101069.19;;;1.44;100.00
11525;BME280;5819;49.648;8.330;2023-01-27T09:37:41;101068.28;;;1.38;100.00
11525;BME280;5819;49.648;8.330;2023-01-27T09:40:19;101081.06;;;1.34;100.00
11525;BME280;5819;49.648;8.330;2023-01-27T09:43:25;101080.22;;;1.36;100.00
11525;BME280;5819;49.648;8.330;2023-01-27T09:46:09;101078.56;;;1.46;100.00
11525;BME280;5819;49.648;8.330;2023-01-27T09:48:53;101081.13;;;1.40;100.00
11525;BME280;5819;49.648;8.330;2023-01-27T09:51:28;101080.31;;;1.50;100.00
11525;BME280;5819;49.648;8.330;2023-01-27T09:54:22;101072.66;;;1.55;100.00
11525;BME280;5819;49.648;8.330;2023-01-27T09:56:59;101075.22;;;1.56;100.00
11525;BME280;5819;49.648;8.330;2023-01-27T09:59:52;101074.38;;;1.56;100.00
11525;BME280;5819;49.648;8.330;2023-01-27T10:06:02;101076.88;;;1.50;100.00
11525;BME280;5819;49.648;8.330;2023-01-27T10:11:30;101075.16;;;1.49;100.00
11525;BME280;5819;49.648;8.330;2023-01-27T10:14:12;101068.38;;;1.57;100.00
11525;BME280;5819;49.648;8.330;2023-01-27T10:17:02;101068.41;;;1.60;100.00
11525;BME280;5819;49.648;8.330;2023-01-27T10:19:46;101066.72;;;1.63;100.00
11525;BME280;5819;49.648;8.330;2023-01-27T10:22:23;101064.16;;;1.66;100.00
11525;BME280;5819;49.648;8.330;2023-01-27T10:25:07;101056.47;;;1.69;100.00
11525;BME280;5819;49.648;8.330;2023-01-27T10:27:43;101059.09;;;1.72;100.00
11525;BME280;5819;49.648;8.330;2023-01-27T10:30:18;101058.22;;;1.75;100.00
11525;BME280;5819;49.648;8.330;2023-01-27T10:32:51;101057.38;;;1.77;100.00
11525;BME280;5819;49.648;8.330;2023-01-27T10:35:27;101059.09;;;1.81;100.00
11525;BME280;5819;49.648;8.330;2023-01-27T10:38:06;101057.41;;;1.83;100.00
11525;BME280;5819;49.648;8.330;2023-01-27T10:40:42;101048.88;;;1.86;100.00
11525;BME280;5819;49.648;8.330;2023-01-27T10:43:15;101051.47;;;1.95;100.00
11525;BME280;5819;49.648;8.330;2023-01-27T10:45:53;101048.06;;;1.98;100.00
11525;BME280;5819;49.648;8.330;2023-01-27T10:48:34;101044.66;;;2.09;100.00
11525;BME280;5819;49.648;8.330;2023-01-27T10:51:06;101042.09;;;2.00;100.00
11525;BME280;5819;49.648;8.330;2023-01-27T10:53:41;101033.56;;;2.10;100.00
11525;BME280;5819;49.648;8.330;2023-01-27T10:56:16;101031.00;;;2.21;100.00
11525;BME280;5819;49.648;8.330;2023-01-27T10:58:54;101028.47;;;2.24;100.00
11525;BME280;5819;49.648;8.330;2023-01-27T11:01:31;101030.16;;;2.25;100.00
11525;BME280;5819;49.648;8.330;2023-01-27T11:04:03;101025.06;;;2.31;100.00
11525;BME280;5819;49.648;8.330;2023-01-27T11:06:39;101028.50;;;2.31;100.00
11525;BME280;5819;49.648;8.330;2023-01-27T11:09:16;101024.22;;;2.47;100.00
11525;BME280;5819;49.648;8.330;2023-01-27T11:11:51;101025.94;;;2.51;100.00
11525;BME280;5819;49.648;8.330;2023-01-27T11:14:24;101023.38;;;2.59;100.00
11525;BME280;5819;49.648;8.330;2023-01-27T11:16:59;101019.97;;;2.67;100.00
11525;BME280;5819;49.648;8.330;2023-01-27T11:19:35;101022.53;;;2.92;100.00
11525;BME280;5819;49.648;8.330;2023-01-27T11:22:14;101027.66;;;2.78;100.00
11525;BME280;5819;49.648;8.330;2023-01-27T11:24:45;101025.94;;;2.89;100.00
11525;BME280;5819;49.648;8.330;2023-01-27T11:27:26;101023.41;;;3.00;100.00
11525;BME280;5819;49.648;8.330;2023-01-27T11:30:01;101028.53;;;2.85;100.00
11525;BME280;5819;49.648;8.330;2023-01-27T11:32:40;101013.09;;;2.98;100.00
11525;BME280;5819;49.648;8.330;2023-01-27T11:35:13;101025.09;;;3.05;100.00
11525;BME280;5819;49.648;8.330;2023-01-27T11:37:43;101020.81;;;2.95;100.00
11525;BME280;5819;49.648;8.330;2023-01-27T11:40:15;101024.22;;;2.97;100.00
11525;BME280;5819;49.648;8.330;2023-01-27T11:42:45;101025.94;;;3.07;100.00
11525;BME280;5819;49.648;8.330;2023-01-27T11:45:15;101019.97;;;3.01;100.00
11525;BME280;5819;49.648;8.330;2023-01-27T11:47:45;101019.06;;;3.24;100.00
11525;BME280;5819;49.648;8.330;2023-01-27T11:50:14;101026.81;;;3.08;100.00
11525;BME280;5819;49.648;8.330;2023-01-27T11:52:45;101023.38;;;3.21;100.00
11525;BME280;5819;49.648;8.330;2023-01-27T11:55:17;101017.41;;;2.96;100.00
11525;BME280;5819;49.648;8.330;2023-01-27T11:57:50;101024.25;;;2.82;100.00
11525;BME280;5819;49.648;8.330;2023-01-27T12:00:22;101022.53;;;2.82;100.00
11525;BME280;5819;49.648;8.330;2023-01-27T12:02:57;101006.22;;;3.27;100.00
11525;BME280;5819;49.648;8.330;2023-01-27T12:05:30;101001.97;;;3.08;100.00
11525;BME280;5819;49.648;8.330;2023-01-27T12:07:59;101009.66;;;2.98;100.00
11525;BME280;5819;49.648;8.330;2023-01-27T12:10:31;101011.41;;;2.87;100.00
11525;BME280;5819;49.648;8.330;2023-01-27T12:13:07;101012.25;;;3.01;100.00
11525;BME280;5819;49.648;8.330;2023-01-27T12:15:36;101012.25;;;2.99;100.00
11525;BME280;5819;49.648;8.330;2023-01-27T12:18:11;101008.81;;;3.08;100.00
11525;BME280;5819;49.648;8.330;2023-01-27T12:20:41;101010.56;;;2.92;100.00
11525;BME280;5819;49.648;8.330;2023-01-27T12:23:18;101005.41;;;2.97;100.00
11525;BME280;5819;49.648;8.330;2023-01-27T12:25:51;100998.53;;;3.15;100.00
11525;BME280;5819;49.648;8.330;2023-01-27T12:28:26;100998.53;;;3.20;100.00
11525;BME280;5819;49.648;8.330;2023-01-27T12:30:58;100995.09;;;3.24;100.00
11525;BME280;5819;49.648;8.330;2023-01-27T12:33:31;101007.09;;;3.13;100.00
11525;BME280;5819;49.648;8.330;2023-01-27T12:36:00;100990.81;;;3.14;100.00
11525;BME280;5819;49.648;8.330;2023-01-27T12:38:35;100996.78;;;3.23;100.00
11525;BME280;5819;49.648;8.330;2023-01-27T12:41:05;100996.78;;;3.33;100.00
11525;BME280;5819;49.648;8.330;2023-01-27T12:43:49;100995.91;;;3.26;100.00
11525;BME280;5819;49.648;8.330;2023-01-27T12:46:20;100992.53;;;3.12;100.00
11525;BME280;5819;49.648;8.330;2023-01-27T12:48:51;100994.25;;;3.05;100.00
11525;BME280;5819;49.648;8.330;2023-01-27T12:51:20;101000.25;;;3.06;100.00
11525;BME280;5819;49.648;8.330;2023-01-27T12:53:50;100992.53;;;3.10;100.00
11525;BME280;5819;49.648;8.330;2023-01-27T12:56:20;100997.69;;;3.09;100.00
11525;BME280;5819;49.648;8.330;2023-01-27T12:58:57;100992.53;;;3.15;100.00
11525;BME280;5819;49.648;8.330;2023-01-27T13:01:27;100993.38;;;3.15;100.00
11525;BME280;5819;49.648;8.330;2023-01-27T13:03:58;100995.88;;;3.44;100.00
11525;BME280;5819;49.648;8.330;2023-01-27T13:06:36;100995.88;;;3.41;100.00
11525;BME280;5819;49.648;8.330;2023-01-27T13:09:21;100997.63;;;3.39;100.00
11525;BME280;5819;49.648;8.330;2023-01-27T13:11:53;101000.16;;;3.48;100.00
11525;BME280;5819;49.648;8.330;2023-01-27T13:14:27;100989.88;;;3.45;100.00
11525;BME280;5819;49.648;8.330;2023-01-27T13:16:56;100989.84;;;3.54;100.00
11525;BME280;5819;49.648;8.330;2023-01-27T13:19:33;100989.88;;;3.47;100.00
11525;BME280;5819;49.648;8.330;2023-01-27T13:22:03;100984.72;;;3.50;100.00
11525;BME280;5819;49.648;8.330;2023-01-27T13:24:34;100985.59;;;3.44;100.00
11525;BME280;5819;49.648;8.330;2023-01-27T13:27:12;100995.84;;;3.53;100.00
11525;BME280;5819;49.648;8.330;2023-01-27T13:29:55;100986.38;;;3.61;100.00
11525;BME280;5819;49.648;8.330;2023-01-27T13:32:27;100987.31;;;3.44;100.00